createdAt,value
2018-03-17T00:02:02.244Z,76.58
2018-03-17T00:04:34.153Z,76.49
2018-03-17T00:07:04.012Z,76.57
2018-03-17T00:09:32.443Z,75.91
2018-03-17T00:12:00.802Z,76.66
2018-03-17T00:14:30.068Z,76.39
2018-03-17T00:16:58.442Z,76.12
2018-03-17T00:19:27.398Z,76.88
2018-03-17T00:21:56.040Z,76.86
2018-03-17T00:24:25.132Z,76.54
2018-03-17T00:26:56.600Z,76.59
2018-03-17T00:29:25.863Z,76.46
2018-03-17T00:31:58.051Z,76.65
2018-03-17T00:34:26.448Z,77.16
2018-03-17T00:36:56.237Z,77.27
2018-03-17T00:39:24.844Z,76.96
2018-03-17T00:41:54.898Z,77.16
2018-03-17T00:44:24.983Z,77.27
2018-03-17T00:46:56.390Z,77.57
2018-03-17T00:49:24.897Z,77.58
2018-03-17T00:51:53.965Z,77.53
2018-03-17T00:54:23.565Z,77.78
2018-03-17T00:56:52.736Z,77.97
2018-03-17T00:59:22.796Z,77.79
2018-03-17T01:01:52.118Z,77.58
2018-03-17T01:04:20.461Z,78.03
2018-03-17T01:06:50.004Z,78.12
2018-03-17T01:09:19.240Z,77.50
2018-03-17T01:11:48.483Z,78.11
2018-03-17T01:14:17.779Z,78.39
2018-03-17T01:16:47.685Z,78.11
2018-03-17T01:19:17.618Z,78.06
2018-03-17T01:21:46.672Z,78.06
2018-03-17T01:24:15.038Z,78.09
2018-03-17T01:26:44.269Z,78.23
2018-03-17T01:29:13.490Z,78.13
2018-03-17T01:31:41.878Z,78.08
2018-03-17T01:34:13.516Z,78.53
2018-03-17T01:36:42.876Z,77.83
2018-03-17T01:39:11.255Z,77.88
2018-03-17T01:41:39.644Z,77.35
2018-03-17T01:44:09.084Z,78.01
2018-03-17T01:46:39.321Z,77.75
2018-03-17T01:49:09.075Z,76.89
2018-03-17T01:51:37.986Z,77.55
2018-03-17T01:54:19.439Z,77.21
2018-03-17T01:56:47.881Z,77.29
2018-03-17T01:59:17.399Z,76.73
2018-03-17T02:01:47.857Z,77.04
2018-03-17T02:04:17.832Z,76.18
2018-03-17T02:06:48.917Z,76.45
2018-03-17T02:09:17.627Z,77.11
2018-03-17T02:11:45.971Z,76.69
2018-03-17T02:14:16.772Z,77.39
2018-03-17T02:16:46.503Z,77.00
2018-03-17T02:19:15.758Z,77.52
2018-03-17T02:21:44.101Z,76.80
2018-03-17T02:24:12.561Z,77.03
2018-03-17T02:26:42.695Z,76.80
2018-03-17T02:29:11.125Z,76.66
2018-03-17T02:31:39.467Z,77.19
2018-03-17T02:34:07.888Z,77.25
2018-03-17T02:36:36.625Z,77.04
2018-03-17T02:39:06.966Z,76.81
2018-03-17T02:41:35.420Z,77.71
2018-03-17T02:44:05.234Z,76.81
2018-03-17T02:46:34.354Z,76.88
2018-03-17T02:49:02.761Z,77.48
2018-03-17T02:51:33.563Z,77.45
2018-03-17T02:54:02.638Z,77.45
2018-03-17T02:56:32.965Z,77.18
2018-03-17T02:59:02.799Z,77.10
2018-03-17T03:01:31.151Z,76.39
2018-03-17T03:03:59.561Z,76.71
2018-03-17T03:06:29.557Z,76.33
2018-03-17T03:08:58.236Z,76.01
2018-03-17T03:11:28.940Z,75.82
2018-03-17T03:13:58.434Z,76.95
2018-03-17T03:16:28.605Z,76.94
2018-03-17T03:18:56.983Z,76.17
2018-03-17T03:21:26.066Z,76.70
2018-03-17T03:23:55.073Z,76.26
2018-03-17T03:26:24.258Z,76.91
2018-03-17T03:28:53.275Z,77.15
2018-03-17T03:31:24.678Z,76.77
2018-03-17T03:33:54.339Z,76.88
2018-03-17T03:36:24.584Z,77.14
2018-03-17T03:38:53.264Z,76.73
2018-03-17T03:41:21.756Z,76.67
2018-03-17T03:43:51.119Z,77.10
2018-03-17T03:46:21.573Z,77.22
2018-03-17T03:48:50.720Z,76.70
2018-03-17T03:51:19.078Z,76.58
2018-03-17T03:53:49.271Z,76.37
2018-03-17T03:56:17.627Z,76.91
2018-03-17T03:58:47.236Z,77.18
2018-03-17T04:01:16.691Z,77.17
2018-03-17T04:03:45.921Z,76.74
2018-03-17T04:06:15.171Z,76.58
2018-03-17T04:08:44.416Z,76.24
2018-03-17T04:11:12.882Z,76.84
2018-03-17T04:13:43.748Z,76.78
2018-03-17T04:16:13.778Z,76.28
2018-03-17T04:18:42.196Z,76.47
2018-03-17T04:21:12.058Z,76.44
2018-03-17T04:23:42.539Z,76.60
2018-03-17T04:26:12.238Z,76.73
2018-03-17T04:28:41.370Z,76.56
2018-03-17T04:31:10.020Z,76.06
2018-03-17T04:33:39.432Z,76.45
2018-03-17T04:36:11.203Z,76.49
2018-03-17T04:38:41.327Z,77.07
2018-03-17T04:41:10.602Z,76.28
2018-03-17T04:43:39.218Z,75.75
2018-03-17T04:46:09.026Z,76.13
2018-03-17T04:48:38.546Z,75.98
2018-03-17T04:51:07.817Z,75.84
2018-03-17T04:53:36.322Z,76.02
2018-03-17T04:56:04.662Z,75.12
2018-03-17T04:58:33.845Z,75.75
2018-03-17T05:01:03.770Z,75.55
2018-03-17T05:03:32.155Z,75.84
2018-03-17T05:06:01.371Z,75.94
2018-03-17T05:08:30.577Z,76.46
2018-03-17T05:10:59.814Z,76.13
2018-03-17T05:13:28.244Z,76.38
2018-03-17T05:15:56.648Z,75.42
2018-03-17T05:18:25.438Z,76.00
2018-03-17T05:20:54.443Z,75.56
2018-03-17T05:23:24.005Z,74.84
2018-03-17T05:25:52.696Z,75.86
2018-03-17T05:28:21.907Z,75.31
2018-03-17T05:30:50.275Z,75.37
2018-03-17T05:33:19.354Z,75.25
2018-03-17T05:35:51.057Z,75.19
2018-03-17T05:38:20.350Z,75.58
2018-03-17T05:40:48.754Z,75.94
2018-03-17T05:43:19.310Z,75.12
2018-03-17T05:45:49.334Z,75.38
2018-03-17T05:48:18.584Z,75.66
2018-03-17T05:50:48.257Z,76.07
2018-03-17T05:53:18.903Z,75.55
2018-03-17T05:55:48.082Z,76.13
2018-03-17T05:58:16.449Z,75.17
2018-03-17T06:00:44.884Z,75.54
2018-03-17T06:03:13.342Z,75.77
2018-03-17T06:05:42.636Z,75.90
2018-03-17T06:08:13.144Z,75.66
2018-03-17T06:10:41.784Z,75.46
2018-03-17T06:13:11.598Z,75.04
2018-03-17T06:15:40.222Z,74.89
2018-03-17T06:18:10.699Z,75.52
2018-03-17T06:20:39.885Z,75.36
2018-03-17T06:23:11.638Z,74.93
2018-03-17T06:25:41.010Z,75.12
2018-03-17T06:28:09.411Z,74.70
2018-03-17T06:30:38.561Z,74.59
2018-03-17T06:33:09.178Z,74.92
2018-03-17T06:35:39.296Z,75.20
2018-03-17T06:38:09.034Z,74.99
2018-03-17T06:40:39.159Z,75.82
2018-03-17T06:43:07.672Z,75.31
2018-03-17T06:45:36.922Z,74.90
2018-03-17T06:48:06.189Z,74.67
2018-03-17T06:50:34.608Z,74.38
2018-03-17T06:53:03.015Z,74.86
2018-03-17T06:55:32.011Z,74.94
2018-03-17T06:58:00.868Z,75.49
2018-03-17T07:00:30.803Z,75.11
2018-03-17T07:02:59.226Z,75.19
2018-03-17T07:05:29.886Z,74.98
2018-03-17T07:07:59.151Z,73.84
2018-03-17T07:10:28.339Z,74.60
2018-03-17T07:12:57.912Z,74.55
2018-03-17T07:15:28.341Z,74.58
2018-03-17T07:17:56.796Z,74.79
2018-03-17T07:20:26.380Z,74.37
2018-03-17T07:22:54.880Z,74.40
2018-03-17T07:25:23.732Z,74.58
2018-03-17T07:27:54.666Z,74.09
2018-03-17T07:30:23.889Z,73.55
2018-03-17T07:32:53.404Z,73.26
2018-03-17T07:35:23.589Z,74.00
2018-03-17T07:37:55.319Z,73.87
2018-03-17T07:40:23.693Z,72.87
2018-03-17T07:42:52.961Z,73.09
2018-03-17T07:45:21.336Z,72.91
2018-03-17T07:47:49.656Z,72.75
2018-03-17T07:50:18.489Z,72.68
2018-03-17T07:52:46.951Z,72.70
2018-03-17T07:55:16.232Z,71.42
2018-03-17T07:57:45.948Z,72.56
2018-03-17T08:00:16.912Z,71.95
2018-03-17T08:02:45.530Z,72.25
2018-03-17T08:05:15.752Z,72.19
2018-03-17T08:07:45.382Z,72.48
2018-03-17T08:10:14.060Z,72.08
2018-03-17T08:12:43.140Z,72.15
2018-03-17T08:15:11.691Z,71.98
2018-03-17T08:17:42.672Z,71.07
2018-03-17T08:20:13.845Z,71.35
2018-03-17T08:22:44.263Z,71.38
2018-03-17T08:25:14.503Z,71.40
2018-03-17T08:27:44.985Z,70.09
2018-03-17T08:30:14.752Z,70.55
2018-03-17T08:32:43.154Z,70.54
2018-03-17T08:35:11.752Z,71.90
2018-03-17T08:37:41.108Z,71.52
2018-03-17T08:40:09.547Z,70.52
2018-03-17T08:42:38.492Z,71.00
2018-03-17T08:45:08.323Z,70.56
2018-03-17T08:47:38.306Z,69.79
2018-03-17T08:50:06.809Z,69.64
2018-03-17T08:52:35.212Z,70.18
2018-03-17T08:55:04.977Z,70.49
2018-03-17T08:57:35.120Z,70.72
2018-03-17T09:00:03.484Z,69.64
2018-03-17T09:02:31.813Z,69.76
2018-03-17T09:05:01.481Z,68.76
2018-03-17T09:07:31.344Z,68.94
2018-03-17T09:10:00.367Z,69.07
2018-03-17T09:12:28.842Z,68.86
2018-03-17T09:14:58.362Z,68.59
2018-03-17T09:17:26.768Z,68.20
2018-03-17T09:19:57.763Z,68.88
2018-03-17T09:22:28.940Z,68.64
2018-03-17T09:24:58.451Z,69.49
2018-03-17T09:27:33.522Z,69.22
2018-03-17T09:30:02.970Z,68.61
2018-03-17T09:32:32.912Z,68.26
2018-03-17T09:35:03.062Z,68.13
2018-03-17T09:37:32.159Z,68.24
2018-03-17T09:40:01.128Z,67.21
2018-03-17T09:42:30.014Z,68.31
2018-03-17T09:44:59.225Z,67.54
2018-03-17T09:47:27.673Z,68.32
2018-03-17T09:49:57.145Z,66.99
2018-03-17T09:52:26.400Z,66.63
2018-03-17T09:54:56.022Z,66.59
2018-03-17T09:57:30.867Z,67.06
2018-03-17T10:00:02.253Z,66.22
2018-03-17T10:02:31.482Z,67.29
2018-03-17T10:05:00.000Z,68.02
2018-03-17T10:07:29.456Z,67.47
2018-03-17T10:09:58.413Z,67.64
2018-03-17T10:12:27.576Z,67.30
2018-03-17T10:14:55.973Z,67.24
2018-03-17T10:17:25.245Z,66.07
2018-03-17T10:19:53.617Z,67.12
2018-03-17T10:22:22.762Z,66.74
2018-03-17T10:24:52.154Z,67.52
2018-03-17T10:27:21.440Z,66.42
2018-03-17T10:29:53.545Z,66.56
2018-03-17T10:32:21.880Z,65.74
2018-03-17T10:34:50.250Z,66.42
2018-03-17T10:37:18.657Z,66.29
2018-03-17T10:39:48.480Z,65.53
2018-03-17T10:42:20.999Z,65.42
2018-03-17T10:44:49.837Z,66.32
2018-03-17T10:47:19.009Z,67.14
2018-03-17T10:49:47.373Z,66.70
2018-03-17T10:52:16.739Z,66.73
2018-03-17T10:54:46.009Z,65.28
2018-03-17T10:57:15.042Z,65.31
2018-03-17T10:59:45.729Z,65.51
2018-03-17T11:02:15.023Z,65.83
2018-03-17T11:04:44.854Z,65.96
2018-03-17T11:07:14.114Z,65.64
2018-03-17T11:09:43.422Z,65.34
2018-03-17T11:12:12.365Z,65.97
2018-03-17T11:14:41.628Z,64.89
2018-03-17T11:17:10.027Z,65.66
2018-03-17T11:19:39.178Z,66.29
2018-03-17T11:22:09.612Z,64.68
2018-03-17T11:24:39.405Z,65.12
2018-03-17T11:27:08.240Z,65.66
2018-03-17T11:29:37.614Z,64.45
2018-03-17T11:32:06.200Z,65.44
2018-03-17T11:34:38.854Z,64.45
2018-03-17T11:37:07.294Z,64.79
2018-03-17T11:39:37.447Z,65.70
2018-03-17T11:42:05.822Z,65.82
2018-03-17T11:44:35.103Z,65.84
2018-03-17T11:47:04.777Z,65.67
2018-03-17T11:49:33.230Z,65.65
2018-03-17T11:52:01.662Z,65.42
2018-03-17T11:54:31.638Z,65.62
2018-03-17T11:57:00.947Z,65.69
2018-03-17T11:59:32.670Z,65.46
2018-03-17T12:02:01.852Z,65.09
2018-03-17T12:04:31.027Z,65.28
2018-03-17T12:07:00.849Z,65.58
2018-03-17T12:09:30.170Z,65.36
2018-03-17T12:11:59.715Z,64.85
2018-03-17T12:14:28.379Z,65.00
2018-03-17T12:16:56.761Z,65.28
2018-03-17T12:19:25.162Z,65.27
2018-03-17T12:21:54.492Z,66.13
2018-03-17T12:24:23.239Z,65.71
2018-03-17T12:26:52.780Z,65.62
2018-03-17T12:29:21.593Z,65.43
2018-03-17T12:31:50.491Z,64.90
2018-03-17T12:34:19.568Z,65.21
2018-03-17T12:36:48.928Z,64.59
2018-03-17T12:39:17.382Z,64.23
2018-03-17T12:41:46.297Z,65.19
2018-03-17T12:44:15.332Z,65.08
2018-03-17T12:46:44.625Z,64.81
2018-03-17T12:49:12.959Z,63.54
2018-03-17T12:51:41.319Z,64.62
2018-03-17T12:54:10.782Z,64.67
2018-03-17T12:56:39.188Z,65.02
2018-03-17T12:59:08.044Z,65.39
2018-03-17T13:01:36.412Z,65.33
2018-03-17T13:04:06.627Z,65.28
2018-03-17T13:06:36.291Z,65.50
2018-03-17T13:09:06.424Z,64.89
2018-03-17T13:11:35.490Z,64.86
2018-03-17T13:14:10.868Z,64.46
2018-03-17T13:16:39.490Z,64.03
2018-03-17T13:19:19.728Z,64.07
2018-03-17T13:21:50.654Z,63.92
2018-03-17T13:24:24.861Z,64.12
2018-03-17T13:29:39.668Z,63.74
2018-03-17T13:32:19.863Z,63.74
2018-03-17T13:34:49.496Z,63.16
2018-03-17T13:37:34.860Z,63.76
2018-03-17T13:40:03.260Z,63.30
2018-03-17T13:42:33.041Z,63.35
2018-03-17T13:45:01.792Z,62.98
2018-03-17T13:47:32.049Z,62.86
2018-03-17T13:50:00.720Z,63.33
2018-03-17T13:52:30.946Z,63.64
2018-03-17T13:55:00.982Z,62.81
2018-03-17T13:57:31.937Z,63.43
2018-03-17T14:00:00.746Z,63.97
2018-03-17T14:02:29.974Z,63.87
2018-03-17T14:04:58.429Z,63.78
2018-03-17T14:07:28.912Z,63.60
2018-03-17T14:09:57.275Z,63.57
2018-03-17T14:12:28.080Z,64.40
2018-03-17T14:14:58.249Z,63.64
2018-03-17T14:17:27.172Z,63.04
2018-03-17T14:19:56.388Z,62.65
2018-03-17T14:22:25.790Z,63.30
2018-03-17T14:24:55.275Z,62.82
2018-03-17T14:27:24.480Z,62.94
2018-03-17T14:29:53.595Z,63.06
2018-03-17T14:32:23.549Z,62.67
2018-03-17T14:34:51.883Z,63.26
2018-03-17T14:37:21.177Z,63.12
2018-03-17T14:39:50.409Z,63.03
2018-03-17T14:42:20.763Z,63.29
2018-03-17T14:44:49.129Z,63.27
2018-03-17T14:47:18.066Z,63.93
2018-03-17T14:49:48.891Z,62.84
2018-03-17T14:52:18.643Z,63.77
2018-03-17T14:54:48.417Z,63.52
2018-03-17T14:57:17.259Z,63.71
2018-03-17T14:59:46.283Z,63.87
2018-03-17T15:02:14.991Z,64.32
2018-03-17T15:04:45.589Z,63.03
2018-03-17T15:07:14.011Z,63.37
2018-03-17T15:09:45.400Z,63.84
2018-03-17T15:12:14.127Z,63.28
2018-03-17T15:14:42.531Z,63.05
2018-03-17T15:17:10.912Z,63.49
2018-03-17T15:19:41.176Z,63.04
2018-03-17T15:22:10.471Z,63.94
2018-03-17T15:24:39.515Z,62.78
2018-03-17T15:27:08.523Z,63.94
2018-03-17T15:29:37.650Z,63.87
2018-03-17T15:32:06.031Z,63.51
2018-03-17T15:34:34.861Z,63.31
2018-03-17T15:37:05.600Z,63.36
2018-03-17T15:39:35.554Z,63.24
2018-03-17T15:42:04.159Z,64.16
2018-03-17T15:44:32.486Z,63.14
2018-03-17T15:47:01.704Z,63.58
2018-03-17T15:49:31.251Z,63.08
2018-03-17T15:52:01.264Z,62.81
2018-03-17T15:54:31.827Z,63.74
2018-03-17T15:57:01.220Z,63.46
2018-03-17T15:59:30.059Z,63.45
2018-03-17T16:02:00.213Z,64.01
2018-03-17T16:04:29.158Z,63.31
2018-03-17T16:06:59.438Z,62.71
2018-03-17T16:09:28.914Z,62.76
2018-03-17T16:11:57.330Z,63.40
2018-03-17T16:14:25.839Z,63.10
2018-03-17T16:16:54.918Z,63.55
2018-03-17T16:19:24.203Z,63.44
2018-03-17T16:21:52.638Z,63.39
2018-03-17T16:24:21.017Z,63.42
2018-03-17T16:26:49.855Z,64.02
2018-03-17T16:29:19.805Z,63.30
2018-03-17T16:31:48.263Z,63.31
2018-03-17T16:34:17.458Z,63.39
2018-03-17T16:36:45.872Z,62.92
2018-03-17T16:39:16.627Z,63.53
2018-03-17T16:41:46.345Z,62.85
2018-03-17T16:44:16.319Z,63.02
2018-03-17T16:46:45.088Z,63.65
2018-03-17T16:49:13.398Z,62.94
2018-03-17T16:51:42.442Z,63.47
2018-03-17T16:54:11.196Z,63.43
2018-03-17T16:56:40.354Z,63.76
2018-03-17T16:59:08.923Z,63.39
2018-03-17T17:01:39.777Z,63.86
2018-03-17T17:04:08.660Z,64.06
2018-03-17T17:06:38.236Z,64.06
2018-03-17T17:09:06.706Z,64.04
2018-03-17T17:11:36.223Z,64.87
2018-03-17T17:14:04.578Z,64.80
2018-03-17T17:16:34.232Z,64.22
2018-03-17T17:19:03.203Z,65.14
2018-03-17T17:21:33.006Z,65.29
2018-03-17T17:24:03.882Z,65.00
2018-03-17T17:26:33.239Z,64.84
2018-03-17T17:29:03.205Z,65.07
2018-03-17T17:31:32.480Z,65.70
2018-03-17T17:34:01.379Z,65.52
2018-03-17T17:36:31.730Z,65.00
2018-03-17T17:39:00.732Z,65.43
2018-03-17T17:41:29.578Z,65.32
2018-03-17T17:43:58.756Z,64.75
2018-03-17T17:46:28.147Z,65.02
2018-03-17T17:48:57.904Z,65.50
2018-03-17T17:51:26.651Z,64.89
2018-03-17T17:53:56.009Z,65.23
2018-03-17T17:56:25.603Z,65.06
2018-03-17T17:58:53.935Z,64.34
2018-03-17T18:01:22.332Z,63.90
2018-03-17T18:03:52.162Z,64.21
2018-03-17T18:06:22.185Z,64.43
2018-03-17T18:08:51.294Z,64.56
2018-03-17T18:11:20.886Z,64.31
2018-03-17T18:13:50.983Z,64.62
2018-03-17T18:16:21.199Z,64.64
2018-03-17T18:18:51.021Z,64.80
2018-03-17T18:21:19.400Z,64.36
2018-03-17T18:23:47.787Z,64.47
2018-03-17T18:26:16.958Z,63.72
2018-03-17T18:28:46.926Z,64.42
2018-03-17T18:31:16.092Z,64.98
2018-03-17T18:33:45.338Z,65.23
2018-03-17T18:36:14.066Z,65.10
2018-03-17T18:38:42.453Z,64.79
2018-03-17T18:41:12.748Z,63.93
2018-03-17T18:43:41.747Z,64.76
2018-03-17T18:46:12.438Z,65.16
2018-03-17T18:48:40.826Z,64.25
2018-03-17T18:51:12.303Z,64.49
2018-03-17T18:53:43.843Z,64.39
2018-03-17T18:56:12.211Z,64.43
2018-03-17T18:58:40.591Z,65.05
2018-03-17T19:01:10.641Z,65.42
2018-03-17T19:03:39.003Z,65.50
2018-03-17T19:06:08.580Z,65.22
2018-03-17T19:08:37.408Z,65.51
2018-03-17T19:11:08.571Z,65.38
2018-03-17T19:13:38.960Z,65.33
2018-03-17T19:16:07.582Z,64.98
2018-03-17T19:18:37.950Z,64.94
2018-03-17T19:21:07.469Z,64.98
2018-03-17T19:23:36.389Z,64.77
2018-03-17T19:26:05.994Z,65.48
2018-03-17T19:28:35.513Z,65.00
2018-03-17T19:31:04.737Z,65.29
2018-03-17T19:33:33.361Z,65.38
2018-03-17T19:36:02.443Z,65.54
2018-03-17T19:38:32.479Z,65.56
2018-03-17T19:41:01.424Z,65.67
2018-03-17T19:43:30.611Z,65.40
2018-03-17T19:45:59.752Z,65.96
2018-03-17T19:48:28.866Z,66.41
2018-03-17T19:50:57.488Z,66.40
2018-03-17T19:53:26.895Z,66.77
2018-03-17T19:55:57.113Z,66.48
2018-03-17T19:58:26.798Z,66.49
2018-03-17T20:00:56.054Z,66.34
2018-03-17T20:03:26.223Z,66.42
2018-03-17T20:05:55.051Z,66.29
2018-03-17T20:08:23.434Z,67.21
2018-03-17T20:10:53.639Z,67.18
2018-03-17T20:13:22.861Z,67.45
2018-03-17T20:15:51.261Z,67.22
2018-03-17T20:18:21.019Z,67.64
2018-03-17T20:20:50.900Z,67.56
2018-03-17T20:23:19.512Z,67.71
2018-03-17T20:25:48.784Z,67.58
2018-03-17T20:28:17.219Z,67.59
2018-03-17T20:30:47.708Z,67.86
2018-03-17T20:33:16.875Z,68.22
2018-03-17T20:35:46.455Z,68.03
2018-03-17T20:38:16.436Z,67.62
2018-03-17T20:40:47.062Z,67.22
2018-03-17T20:43:19.090Z,67.68
2018-03-17T20:45:47.580Z,66.95
2018-03-17T20:48:15.932Z,67.77
2018-03-17T20:50:45.050Z,67.37
2018-03-17T20:53:15.057Z,67.66
2018-03-17T20:55:44.666Z,67.57
2018-03-17T20:58:13.130Z,66.70
2018-03-17T21:00:42.259Z,67.53
2018-03-17T21:03:12.803Z,67.78
2018-03-17T21:05:42.216Z,68.06
2018-03-17T21:08:11.558Z,67.70
2018-03-17T21:10:40.970Z,67.62
2018-03-17T21:13:10.130Z,67.69
2018-03-17T21:15:38.609Z,67.45
2018-03-17T21:18:06.991Z,67.68
2018-03-17T21:20:36.454Z,67.08
2018-03-17T21:23:06.810Z,67.10
2018-03-17T21:25:38.124Z,67.52
2018-03-17T21:28:07.341Z,67.50
2018-03-17T21:30:38.694Z,67.64
2018-03-17T21:33:07.178Z,67.81
2018-03-17T21:35:35.945Z,67.49
2018-03-17T21:38:04.301Z,67.23
2018-03-17T21:40:33.715Z,67.61
2018-03-17T21:43:06.888Z,67.49
2018-03-17T21:45:35.838Z,67.70
2018-03-17T21:48:05.184Z,67.81
2018-03-17T21:50:36.119Z,67.51
2018-03-17T21:53:05.223Z,67.64
2018-03-17T21:55:35.529Z,67.87
2018-03-17T21:58:04.179Z,67.66
2018-03-17T22:00:33.740Z,67.86
2018-03-17T22:03:02.595Z,67.92
2018-03-17T22:05:32.695Z,67.62
2018-03-17T22:08:02.788Z,67.24
2018-03-17T22:10:31.922Z,67.20
2018-03-17T22:13:02.566Z,67.82
2018-03-17T22:15:30.927Z,67.90
2018-03-17T22:17:59.350Z,68.10
2018-03-17T22:20:28.575Z,68.07
2018-03-17T22:22:56.997Z,68.58
2018-03-17T22:25:26.226Z,68.17
2018-03-17T22:27:58.054Z,68.72
2018-03-17T22:30:28.036Z,68.12
2018-03-17T22:32:56.418Z,68.24
2018-03-17T22:35:24.909Z,68.19
2018-03-17T22:37:54.589Z,68.57
2018-03-17T22:40:23.221Z,68.50
2018-03-17T22:42:52.511Z,67.85
2018-03-17T22:45:23.674Z,67.52
2018-03-17T22:47:54.589Z,67.60
2018-03-17T22:50:23.545Z,68.19
2018-03-17T22:52:51.991Z,68.07
2018-03-17T22:55:22.432Z,67.80
2018-03-17T22:57:51.839Z,67.71
2018-03-17T23:00:20.426Z,67.34
2018-03-17T23:02:52.062Z,67.61
2018-03-17T23:05:20.559Z,67.30
2018-03-17T23:07:49.261Z,67.64
2018-03-17T23:10:19.303Z,67.47
2018-03-17T23:12:47.880Z,67.33
2018-03-17T23:15:18.630Z,66.94
2018-03-17T23:17:48.259Z,67.31
2018-03-17T23:20:16.940Z,67.60
2018-03-17T23:22:46.641Z,66.92
2018-03-17T23:25:17.063Z,66.68
2018-03-17T23:27:46.115Z,67.17
2018-03-17T23:30:14.547Z,67.09
2018-03-17T23:32:43.328Z,67.81
2018-03-17T23:35:12.364Z,67.42
2018-03-17T23:37:40.726Z,66.83
2018-03-17T23:40:12.944Z,66.94
2018-03-17T23:42:41.660Z,67.18
2018-03-17T23:45:10.687Z,67.08
2018-03-17T23:47:40.690Z,66.18
2018-03-17T23:50:10.218Z,66.74
2018-03-17T23:52:40.883Z,66.60
2018-03-17T23:55:09.363Z,66.80
2018-03-17T23:57:38.357Z,66.64
